Time;durP1;ratioP1;P1;durP2;ratioP2;P2;SDS_P1;SDS_P2;PMS_P1;PMS_P2;Temp;Humidity;BMP_temperature;BMP_pressure;BME280_temperature;BME280_humidity;BME280_pressure;Samples;Min_cycle;Max_cycle;Signal;HPM_P1;HPM_P2
2021/12/19 00:00:39;;;;;;;6.25;4.72;;;;;;;-0.61;100.00;100879.44;1607743;89;21193;-79
2021/12/19 00:11:10;;;;;;;7.40;5.05;;;;;;;-0.72;100.00;100863.53;1606543;88;21090;-81
2021/12/19 00:13:40;;;;;;;6.65;4.85;;;;;;;-0.77;100.00;100862.36;1606583;88;21000;-80
2021/12/19 00:16:08;;;;;;;7.10;4.45;;;;;;;-0.80;100.00;100861.14;1606709;89;21564;-80
2021/12/19 00:18:36;;;;;;;6.80;4.40;;;;;;;-0.78;100.00;100859.40;1606569;89;21075;-80
2021/12/19 00:21:04;;;;;;;7.00;5.00;;;;;;;-0.76;100.00;100857.63;1594020;89;21042;-80
2021/12/19 00:23:31;;;;;;;8.03;4.53;;;;;;;-0.77;100.00;100855.97;1606695;88;21042;-81
2021/12/19 00:25:58;;;;;;;6.10;4.55;;;;;;;-0.76;100.00;100851.69;1606716;89;21210;-80
2021/12/19 00:28:25;;;;;;;5.53;4.20;;;;;;;-0.76;100.00;100846.56;1606456;89;21148;-80
2021/12/19 00:30:53;;;;;;;4.50;3.60;;;;;;;-0.78;100.00;100843.20;1606267;88;21038;-80
2021/12/19 00:33:19;;;;;;;4.37;3.40;;;;;;;-0.83;100.00;100831.80;1606285;89;21079;-81
2021/12/19 00:35:47;;;;;;;3.70;3.10;;;;;;;-0.86;100.00;100827.61;1606333;89;21595;-80
2021/12/19 00:38:14;;;;;;;6.40;3.80;;;;;;;-0.89;100.00;100815.33;1606070;89;21128;-80
2021/12/19 00:40:42;;;;;;;3.50;2.70;;;;;;;-0.91;100.00;100816.66;1606212;88;21094;-80
2021/12/19 00:43:21;;;;;;;5.08;2.90;;;;;;;-0.91;100.00;100803.88;1606111;89;21079;-80
2021/12/19 00:45:40;;;;;;;4.75;3.02;;;;;;;-0.90;100.00;100795.33;1603625;87;21081;-81
2021/12/19 00:48:09;;;;;;;5.55;3.47;;;;;;;-0.87;100.00;100788.84;1609141;88;21120;-80
2021/12/19 00:50:37;;;;;;;5.03;3.60;;;;;;;-0.83;100.00;100789.19;1609424;88;21952;-80
2021/12/19 00:53:05;;;;;;;6.37;4.28;;;;;;;-0.76;100.00;100791.13;1609037;89;21598;-86
2021/12/19 00:55:33;;;;;;;4.90;3.52;;;;;;;-0.70;100.00;100783.75;1605648;89;21100;-81
2021/12/19 00:58:00;;;;;;;4.20;2.70;;;;;;;-0.74;100.00;100786.83;1609120;88;21108;-80
2021/12/19 01:00:32;;;;;;;3.33;2.35;;;;;;;-0.80;100.00;100780.59;1609273;88;21094;-81
2021/12/19 01:03:01;;;;;;;5.95;3.62;;;;;;;-0.81;100.00;100781.47;1605870;89;21674;-80
2021/12/19 01:05:31;;;;;;;7.03;4.40;;;;;;;-0.84;100.00;100773.89;1609277;88;21069;-80
2021/12/19 01:07:59;;;;;;;9.43;5.03;;;;;;;-0.89;100.00;100776.98;1608023;88;21042;-80
2021/12/19 01:10:26;;;;;;;7.37;4.55;;;;;;;-0.92;100.00;100777.08;1609271;88;21077;-80
2021/12/19 01:12:54;;;;;;;7.45;4.97;;;;;;;-0.96;100.00;100782.67;1606080;89;21571;-80
2021/12/19 01:15:22;;;;;;;11.88;5.37;;;;;;;-0.99;100.00;100780.21;1609329;88;21148;-81
2021/12/19 01:17:50;;;;;;;8.88;5.33;;;;;;;-1.00;100.00;100784.47;1605872;89;21060;-81
2021/12/19 01:20:22;;;;;;;7.55;4.70;;;;;;;-1.02;100.00;100774.74;1609379;88;21156;-80
2021/12/19 01:22:51;;;;;;;6.08;4.22;;;;;;;-1.02;100.00;100755.57;1598293;89;21420;-84
2021/12/19 01:25:19;;;;;;;6.62;5.08;;;;;;;-0.98;100.00;100755.05;1605873;89;21596;-80
2021/12/19 01:27:46;;;;;;;9.60;5.17;;;;;;;-0.97;100.00;100747.34;1609212;88;21141;-80
2021/12/19 01:30:14;;;;;;;6.97;4.70;;;;;;;-0.99;100.00;100745.25;1585585;89;21069;-80
2021/12/19 01:32:42;;;;;;;8.93;5.40;;;;;;;-0.99;100.00;100746.98;1609382;88;21081;-81
2021/12/19 01:35:14;;;;;;;12.70;7.30;;;;;;;-1.00;100.00;100741.01;1605849;89;21121;-80
2021/12/19 01:37:40;;;;;;;17.30;9.18;;;;;;;-1.03;100.00;100742.38;1608414;88;21022;-80
2021/12/19 01:40:12;;;;;;;16.70;9.35;;;;;;;-1.07;100.00;100736.93;1606222;89;21298;-80
2021/12/19 01:42:44;;;;;;;15.20;7.95;;;;;;;-1.08;100.00;100730.14;1608023;88;21132;-80
2021/12/19 01:45:15;;;;;;;12.00;6.33;;;;;;;-1.06;100.00;100732.22;1595858;89;21030;-80
2021/12/19 01:47:42;;;;;;;9.05;5.10;;;;;;;-1.04;100.00;100731.75;1605556;89;21110;-80
2021/12/19 01:50:10;;;;;;;8.13;4.75;;;;;;;-1.03;100.00;100718.52;1595128;89;21099;-81
2021/12/19 01:52:39;;;;;;;6.90;4.30;;;;;;;-1.03;100.00;100718.10;1595024;89;21175;-80
2021/12/19 01:55:06;;;;;;;9.15;4.22;;;;;;;-1.02;100.00;100709.98;1622532;88;21078;-80
2021/12/19 01:57:35;;;;;;;5.28;3.52;;;;;;;-1.00;100.00;100704.39;1598654;88;21108;-80
2021/12/19 02:00:07;;;;;;;7.87;3.70;;;;;;;-0.98;100.00;100704.75;1598787;88;21071;-80
2021/12/19 02:02:34;;;;;;;7.05;4.40;;;;;;;-0.96;100.00;100706.84;1598530;88;21085;-80
2021/12/19 02:05:02;;;;;;;6.42;4.15;;;;;;;-0.94;100.00;100704.23;1599014;88;21148;-80
2021/12/19 02:07:30;;;;;;;4.90;3.45;;;;;;;-0.99;100.00;100700.52;1598578;88;21048;-81
2021/12/19 02:09:56;;;;;;;6.87;3.37;;;;;;;-1.06;100.00;100693.88;1599030;88;21021;-80
2021/12/19 02:12:23;;;;;;;4.17;3.00;;;;;;;-1.12;100.00;100689.76;1598814;88;21021;-80
2021/12/19 02:14:50;;;;;;;3.08;2.45;;;;;;;-1.15;100.00;100684.75;1598849;88;21073;-80
2021/12/19 02:17:17;;;;;;;5.75;2.60;;;;;;;-1.15;100.00;100687.72;1598648;88;21217;-80
2021/12/19 02:19:44;;;;;;;3.65;1.98;;;;;;;-1.16;100.00;100680.95;1599095;88;21089;-80
2021/12/19 02:22:12;;;;;;;3.87;2.47;;;;;;;-1.14;100.00;100679.18;1598875;88;21538;-79
2021/12/19 02:24:39;;;;;;;5.12;3.12;;;;;;;-1.13;100.00;100677.88;1599082;88;21081;-80
2021/12/19 02:27:06;;;;;;;5.37;3.55;;;;;;;-1.11;100.00;100667.61;1598688;88;21060;-81
2021/12/19 02:29:33;;;;;;;7.97;3.50;;;;;;;-1.09;100.00;100668.42;1598705;88;21173;-81
2021/12/19 02:32:02;;;;;;;6.03;3.50;;;;;;;-1.05;100.00;100653.84;1598837;88;21020;-80
2021/12/19 02:34:32;;;;;;;9.20;4.53;;;;;;;-0.99;100.00;100654.95;1599085;88;21073;-81
2021/12/19 02:37:20;;;;;;;7.17;4.72;;;;;;;-0.96;100.00;100646.76;1576254;89;20985;-79
2021/12/19 02:40:04;;;;;;;7.17;4.15;;;;;;;-0.96;100.00;100645.91;1595956;88;21100;-81
2021/12/19 02:50:28;;;;;;;8.60;4.70;;;;;;;-0.87;100.00;100640.55;1595005;88;21100;-80
2021/12/19 02:52:55;;;;;;;6.53;4.12;;;;;;;-0.84;100.00;100630.70;1593487;90;21585;-79
2021/12/19 02:55:22;;;;;;;5.37;3.90;;;;;;;-0.82;100.00;100619.55;1608162;89;21160;-80
2021/12/19 02:57:52;;;;;;;7.35;4.28;;;;;;;-0.78;100.00;100616.46;1608455;89;21083;-79
2021/12/19 03:00:25;;;;;;;5.62;4.05;;;;;;;-0.75;100.00;100607.86;1608322;89;21188;-79
2021/12/19 03:02:52;;;;;;;5.65;4.05;;;;;;;-0.73;100.00;100604.38;1608195;88;21121;-79
2021/12/19 03:05:20;;;;;;;6.12;4.53;;;;;;;-0.75;100.00;100598.45;1608311;89;21048;-81
2021/12/19 03:07:50;;;;;;;7.37;4.67;;;;;;;-0.75;100.00;100586.13;1593549;90;21114;-80
2021/12/19 03:13:10;;;;;;;8.50;4.70;;;;;;;-0.75;100.00;100575.44;1593478;90;21625;-80
2021/12/19 03:18:14;;;;;;;8.30;4.95;;;;;;;-0.71;100.00;100557.86;1607877;89;21031;-81
2021/12/19 03:20:43;;;;;;;14.18;6.83;;;;;;;-0.70;100.00;100565.08;1575677;90;21112;-81
2021/12/19 03:23:13;;;;;;;10.53;6.55;;;;;;;-0.69;100.00;100563.78;1576203;89;21131;-80
2021/12/19 03:25:41;;;;;;;8.60;6.05;;;;;;;-0.66;100.00;100557.73;1606833;89;21051;-85
2021/12/19 03:28:14;;;;;;;12.55;7.58;;;;;;;-0.59;100.00;100558.37;1608072;88;21110;-82
2021/12/19 03:30:44;;;;;;;10.90;7.87;;;;;;;-0.58;100.00;100549.39;1608269;89;21066;-80
2021/12/19 03:33:13;;;;;;;12.30;8.37;;;;;;;-0.55;100.00;100542.06;1608393;89;21227;-81
2021/12/19 03:35:41;;;;;;;14.55;8.33;;;;;;;-0.53;100.00;100535.19;1608147;88;21067;-80
2021/12/19 03:38:13;;;;;;;12.93;8.15;;;;;;;-0.54;100.00;100529.67;1608086;88;21121;-81
2021/12/19 03:40:51;;;;;;;10.60;7.47;;;;;;;-0.53;100.00;100521.94;1608302;88;21177;-81
2021/12/19 03:43:19;;;;;;;9.88;7.25;;;;;;;-0.50;100.00;100521.86;1577026;90;21146;-81
2021/12/19 03:45:48;;;;;;;11.85;7.40;;;;;;;-0.50;100.00;100517.16;1608159;89;21213;-81
2021/12/19 03:48:16;;;;;;;9.05;6.85;;;;;;;-0.50;100.00;100519.73;1607880;88;21540;-80
2021/12/19 03:50:48;;;;;;;10.10;7.30;;;;;;;-0.50;100.00;100523.56;1607904;88;21524;-80
2021/12/19 03:53:18;;;;;;;11.18;7.95;;;;;;;-0.54;100.00;100505.37;1606584;89;28620;-80
2021/12/19 03:55:45;;;;;;;14.78;8.50;;;;;;;-0.57;100.00;100507.59;1607536;88;21054;-81
2021/12/19 03:58:13;;;;;;;9.38;7.22;;;;;;;-0.59;100.00;100495.28;1607753;88;21995;-82
2021/12/19 04:00:42;;;;;;;10.40;7.30;;;;;;;-0.58;100.00;100497.38;1607953;89;21569;-85
2021/12/19 04:03:10;;;;;;;11.45;8.03;;;;;;;-0.58;100.00;100488.42;1607468;89;21155;-81
2021/12/19 04:05:39;;;;;;;10.48;7.92;;;;;;;-0.60;100.00;100500.45;1610712;89;21087;-81
2021/12/19 04:08:06;;;;;;;11.18;8.50;;;;;;;-0.61;100.00;100493.20;1607895;89;21149;-80
2021/12/19 04:10:35;;;;;;;10.68;8.45;;;;;;;-0.61;100.00;100492.38;1610628;89;21067;-79
2021/12/19 04:13:02;;;;;;;11.05;8.30;;;;;;;-0.60;100.00;100496.61;1607522;88;21063;-80
2021/12/19 04:15:29;;;;;;;12.43;8.70;;;;;;;-0.62;100.00;100489.42;1610758;89;21514;-81
2021/12/19 04:17:57;;;;;;;14.33;8.15;;;;;;;-0.61;100.00;100492.38;1607582;89;21181;-81
2021/12/19 04:20:23;;;;;;;12.18;8.38;;;;;;;-0.62;100.00;100490.70;1610780;89;21071;-81
2021/12/19 04:23:04;;;;;;;10.98;8.23;;;;;;;-0.64;100.00;100496.70;1607484;89;21170;-81
2021/12/19 04:25:27;;;;;;;10.90;7.80;;;;;;;-0.61;100.00;100485.98;1589774;89;21187;-79
2021/12/19 04:27:54;;;;;;;10.20;6.47;;;;;;;-0.61;100.00;100484.25;1608099;88;21672;-81
2021/12/19 04:30:25;;;;;;;11.95;7.75;;;;;;;-0.65;100.00;100484.78;1610738;89;21009;-80
2021/12/19 04:33:02;;;;;;;12.37;6.55;;;;;;;-0.68;100.00;100478.47;1585222;89;47284;-79
2021/12/19 04:35:31;;;;;;;8.03;6.08;;;;;;;-0.70;100.00;100476.85;1609848;89;21977;-79
2021/12/19 04:40:58;;;;;;;7.92;5.65;;;;;;;-0.71;100.00;100464.94;1610423;89;21036;-79
2021/12/19 04:52:12;;;;;;;6.78;5.05;;;;;;;-0.74;100.00;100453.09;1604414;89;21699;-80
2021/12/19 04:59:52;;;;;;;6.20;4.83;;;;;;;-0.74;100.00;100422.86;1580612;89;21094;-83
2021/12/19 05:02:14;;;;;;;7.05;4.83;;;;;;;-0.74;100.00;100419.03;1601359;89;21229;-81
2021/12/19 05:15:38;;;;;;;10.75;8.50;;;;;;;-0.76;100.00;100392.20;1603980;89;21856;-79
2021/12/19 05:18:09;;;;;;;11.68;8.20;;;;;;;-0.73;100.00;100400.25;1596489;89;21056;-79
2021/12/19 05:20:39;;;;;;;8.40;6.30;;;;;;;-0.74;100.00;100394.28;1591676;89;21026;-79
2021/12/19 05:23:18;;;;;;;9.00;7.67;;;;;;;-0.73;100.00;100390.02;1581040;89;21105;-79
2021/12/19 05:25:34;;;;;;;11.08;7.58;;;;;;;-0.75;100.00;100383.65;1569073;90;21658;-79
2021/12/19 05:28:01;;;;;;;21.10;15.80;;;;;;;-0.74;100.00;100389.16;1582695;90;21115;-81
2021/12/19 05:30:28;;;;;;;49.70;30.48;;;;;;;-0.73;100.00;100385.73;1582737;90;21691;-80
2021/12/19 05:32:56;;;;;;;25.92;16.65;;;;;;;-0.72;100.00;100384.84;1572151;90;21085;-79
2021/12/19 05:49:32;;;;;;;6.12;5.55;;;;;;;-0.45;100.00;100346.47;1823768;77;27811;-80
2021/12/19 05:52:00;;;;;;;11.43;8.68;;;;;;;-0.40;100.00;100347.59;1744547;80;21061;-76
2021/12/19 05:54:27;;;;;;;15.53;9.85;;;;;;;-0.33;100.00;100340.92;1769944;80;21084;-82
2021/12/19 05:56:55;;;;;;;26.97;17.60;;;;;;;-0.28;100.00;100329.71;1746482;80;21026;-80
2021/12/19 05:59:22;;;;;;;42.53;23.98;;;;;;;-0.13;100.00;100323.20;1716482;82;21057;-80
2021/12/19 06:01:52;;;;;;;81.67;45.90;;;;;;;-0.09;100.00;100306.86;1748723;82;21093;-81
2021/12/19 06:04:19;;;;;;;113.72;59.83;;;;;;;-0.05;100.00;100297.74;1748793;81;21419;-79
2021/12/19 06:06:48;;;;;;;174.07;93.15;;;;;;;0.04;100.00;100288.06;1718684;83;21806;-80
2021/12/19 06:09:15;;;;;;;116.05;59.25;;;;;;;0.09;100.00;100272.06;1748698;82;20939;-79
2021/12/19 06:11:42;;;;;;;62.27;38.88;;;;;;;0.16;100.00;100258.14;1779537;80;21054;-80
2021/12/19 06:14:09;;;;;;;30.02;21.02;;;;;;;0.22;100.00;100251.50;1779649;80;21575;-81
2021/12/19 06:16:37;;;;;;;29.92;21.70;;;;;;;0.25;100.00;100249.27;1748732;82;21018;-79
2021/12/19 06:19:04;;;;;;;23.95;17.07;;;;;;;0.26;100.00;100253.50;1692040;82;21062;-81
2021/12/19 06:21:31;;;;;;;20.45;14.95;;;;;;;0.38;100.00;100251.77;1770406;80;21523;-81
2021/12/19 06:23:58;;;;;;;23.18;14.83;;;;;;;0.42;100.00;100237.11;1727955;80;21688;-81
2021/12/19 06:26:25;;;;;;;19.48;12.95;;;;;;;0.40;100.00;100232.02;1722587;82;21560;-82
2021/12/19 06:28:53;;;;;;;15.83;11.63;;;;;;;0.42;100.00;100224.30;1748583;82;21041;-80
2021/12/19 06:31:20;;;;;;;13.68;10.28;;;;;;;0.38;100.00;100212.48;1779849;80;21127;-80
2021/12/19 06:33:47;;;;;;;17.27;11.60;;;;;;;0.37;100.00;100212.09;1779432;80;21039;-81
2021/12/19 06:36:15;;;;;;;17.65;12.37;;;;;;;0.37;100.00;100205.69;1748909;81;21088;-81
2021/12/19 06:38:43;;;;;;;17.15;11.63;;;;;;;0.37;100.00;100200.58;1748694;82;21022;-80
2021/12/19 06:41:10;;;;;;;16.50;10.28;;;;;;;0.39;100.00;100194.95;1747507;80;21531;-80
2021/12/19 06:43:38;;;;;;;14.25;10.45;;;;;;;0.38;100.00;100192.00;1748582;82;21006;-80
2021/12/19 06:46:05;;;;;;;12.85;8.45;;;;;;;0.40;100.00;100183.81;1715908;82;22093;-80
2021/12/19 06:48:33;;;;;;;12.18;9.08;;;;;;;0.36;100.00;100172.86;1774880;80;21520;-81
2021/12/19 06:51:01;;;;;;;14.93;7.22;;;;;;;0.36;100.00;100164.34;1768520;81;21010;-81
2021/12/19 06:53:29;;;;;;;6.67;5.15;;;;;;;0.37;100.00;100151.90;1768565;80;21559;-84
2021/12/19 07:11:12;;;;;;;14.90;6.70;;;;;;;0.39;100.00;100143.28;1805712;77;22255;-79
2021/12/19 07:13:40;;;;;;;13.43;5.00;;;;;;;0.35;100.00;100140.91;1736831;81;21062;-80
2021/12/19 07:16:08;;;;;;;7.92;5.95;;;;;;;0.28;100.00;100147.99;1729360;82;21981;-80
2021/12/19 07:18:42;;;;;;;9.35;7.12;;;;;;;0.20;100.00;100150.84;1729666;81;21554;-80
2021/12/19 07:21:07;;;;;;;13.40;7.67;;;;;;;0.15;100.00;100154.04;1743686;80;21036;-79
2021/12/19 07:23:34;;;;;;;9.75;7.67;;;;;;;0.16;100.00;100153.16;1742213;80;21073;-81
2021/12/19 07:26:05;;;;;;;15.15;7.00;;;;;;;0.17;100.00;100152.69;1729919;81;21054;-82
2021/12/19 07:28:33;;;;;;;10.08;7.12;;;;;;;0.15;100.00;100142.09;1729753;81;21163;-80
2021/12/19 07:31:02;;;;;;;13.65;7.80;;;;;;;0.17;100.00;100139.45;1738413;80;21069;-80
2021/12/19 07:33:32;;;;;;;8.90;6.83;;;;;;;0.20;100.00;100139.31;1775799;80;21050;-79
2021/12/19 07:36:00;;;;;;;17.30;12.07;;;;;;;0.22;100.00;100134.98;1736486;80;21066;-81
2021/12/19 07:38:36;;;;;;;13.00;8.80;;;;;;;0.22;100.00;100115.77;1740292;81;21072;-80
2021/12/19 07:41:04;;;;;;;14.63;9.43;;;;;;;0.19;100.00;100108.66;1726568;81;21551;-80
2021/12/19 07:43:33;;;;;;;11.03;9.28;;;;;;;0.18;100.00;100104.00;1729888;81;21069;-82
2021/12/19 07:46:02;;;;;;;9.78;7.85;;;;;;;0.16;100.00;100095.53;1728040;81;21498;-81
2021/12/19 07:48:29;;;;;;;11.75;8.63;;;;;;;0.15;100.00;100093.87;1728126;81;21035;-80
2021/12/19 07:50:56;;;;;;;13.75;8.73;;;;;;;0.15;100.00;100089.59;1728538;81;21067;-82
2021/12/19 07:53:24;;;;;;;13.28;10.28;;;;;;;0.14;100.00;100088.36;1731203;80;21804;-81
2021/12/19 07:55:51;;;;;;;16.15;10.13;;;;;;;0.13;100.00;100086.69;1713500;81;21112;-80
2021/12/19 07:58:19;;;;;;;14.80;11.15;;;;;;;0.14;100.00;100077.69;1756777;80;21020;-80
2021/12/19 08:00:57;;;;;;;12.88;9.80;;;;;;;0.14;100.00;100078.11;1708237;82;21045;-81
2021/12/19 08:03:23;;;;;;;15.63;10.32;;;;;;;0.14;100.00;100083.23;1725170;81;21507;-79
2021/12/19 08:06:20;;;;;;;14.10;10.63;;;;;;;0.12;100.00;100079.92;1725748;81;21059;-79
2021/12/19 08:08:37;;;;;;;17.17;9.65;;;;;;;0.13;100.00;100067.05;1702571;81;21036;-80
2021/12/19 08:13:51;;;;;;;12.85;9.53;;;;;;;0.14;100.00;100062.75;1706715;81;21032;-80
2021/12/19 08:16:18;;;;;;;12.33;8.63;;;;;;;0.15;100.00;100054.17;1727829;81;21083;-79
2021/12/19 08:18:45;;;;;;;13.45;9.60;;;;;;;0.14;100.00;100057.63;1727687;81;21127;-79
2021/12/19 08:21:12;;;;;;;11.95;8.40;;;;;;;0.12;100.00;100056.88;1736321;80;21018;-80
2021/12/19 08:23:39;;;;;;;14.78;9.80;;;;;;;0.12;100.00;100044.08;1737562;81;21105;-80
2021/12/19 08:26:06;;;;;;;11.90;9.18;;;;;;;0.13;100.00;100042.73;1758948;80;21617;-80
2021/12/19 08:28:33;;;;;;;11.53;8.88;;;;;;;0.14;100.00;100028.18;1737803;81;21006;-80
2021/12/19 08:31:00;;;;;;;9.78;7.33;;;;;;;0.14;100.00;100030.74;1737216;80;21200;-80
2021/12/19 08:33:27;;;;;;;13.30;8.30;;;;;;;0.14;100.00;100023.06;1758641;80;21061;-80
2021/12/19 08:35:55;;;;;;;10.35;7.97;;;;;;;0.15;100.00;100014.48;1759229;80;21010;-79
2021/12/19 08:38:22;;;;;;;10.82;8.95;;;;;;;0.19;100.00;100013.48;1737751;81;21121;-80
2021/12/19 08:40:51;;;;;;;11.63;8.68;;;;;;;0.21;100.00;99991.64;1759107;81;21100;-81
2021/12/19 08:43:19;;;;;;;13.60;8.60;;;;;;;0.22;100.00;99985.16;1759310;81;21875;-82
2021/12/19 08:45:47;;;;;;;11.45;7.97;;;;;;;0.24;100.00;99985.94;1737818;81;21057;-80
2021/12/19 08:48:14;;;;;;;12.43;8.68;;;;;;;0.27;100.00;99966.61;1759673;80;21060;-82
2021/12/19 08:50:42;;;;;;;10.30;7.22;;;;;;;0.29;100.00;99949.89;1759540;81;21621;-82
2021/12/19 08:53:10;;;;;;;10.65;7.80;;;;;;;0.30;100.00;99949.00;1763733;80;21574;-81
2021/12/19 08:55:37;;;;;;;11.25;8.10;;;;;;;0.31;100.00;99945.08;1744520;79;21618;-81
2021/12/19 08:58:06;;;;;;;13.00;7.58;;;;;;;0.34;100.00;99942.01;1775304;80;21503;-79
2021/12/19 09:00:35;;;;;;;10.23;7.33;;;;;;;0.37;100.00;99931.61;1775295;80;21673;-80
2021/12/19 09:03:02;;;;;;;10.98;7.92;;;;;;;0.40;100.00;99932.77;1775390;80;21026;-79
2021/12/19 09:05:36;;;;;;;11.38;7.65;;;;;;;0.39;100.00;99938.36;1775643;79;20987;-79
2021/12/19 09:08:04;;;;;;;11.30;7.72;;;;;;;0.38;100.00;99925.16;1776072;79;21752;-79
2021/12/19 09:10:32;;;;;;;11.12;7.47;;;;;;;0.38;100.00;99918.76;1746851;80;21030;-79
2021/12/19 09:12:59;;;;;;;9.65;7.10;;;;;;;0.39;100.00;99909.33;1780855;80;21570;-79
2021/12/19 09:15:26;;;;;;;10.60;6.72;;;;;;;0.41;100.00;99906.27;1780833;80;20962;-79
2021/12/19 09:17:54;;;;;;;9.83;6.80;;;;;;;0.42;100.00;99901.06;1725482;79;21007;-79
2021/12/19 09:20:21;;;;;;;10.75;7.67;;;;;;;0.45;100.00;99904.78;1780825;79;21145;-79
2021/12/19 09:22:48;;;;;;;11.73;7.78;;;;;;;0.46;100.00;99892.79;1733836;81;21058;-78
2021/12/19 09:25:16;;;;;;;8.30;6.58;;;;;;;0.47;100.00;99889.33;1727486;79;21132;-81
2021/12/19 09:27:43;;;;;;;13.45;7.55;;;;;;;0.49;100.00;99880.28;1727320;80;21000;-81
2021/12/19 09:30:11;;;;;;;10.88;6.92;;;;;;;0.52;100.00;99884.00;1736833;79;21038;-79
2021/12/19 09:32:38;;;;;;;9.50;6.83;;;;;;;0.56;100.00;99868.42;1756762;80;21151;-80
2021/12/19 09:35:07;;;;;;;10.00;7.20;;;;;;;0.59;100.00;99870.86;1733522;81;21042;-80
2021/12/19 09:37:35;;;;;;;13.40;8.63;;;;;;;0.62;100.00;99880.13;1756813;81;21041;-80
2021/12/19 09:40:10;;;;;;;10.82;6.62;;;;;;;0.65;100.00;99877.88;1756605;79;21578;-82
2021/12/19 09:42:46;;;;;;;15.25;8.20;;;;;;;0.65;100.00;99868.44;1723694;81;21089;-79
2021/12/19 09:45:07;;;;;;;14.80;8.03;;;;;;;0.66;100.00;99850.08;1753419;80;22542;-81
2021/12/19 09:47:34;;;;;;;10.90;7.15;;;;;;;0.68;100.00;99837.56;1756670;80;21072;-80
2021/12/19 09:50:05;;;;;;;8.73;6.50;;;;;;;0.72;100.00;99826.72;1730521;81;21573;-80
2021/12/19 09:52:31;;;;;;;12.35;8.20;;;;;;;0.72;100.00;99820.31;1753662;81;21133;-79
2021/12/19 09:54:58;;;;;;;10.03;7.40;;;;;;;0.73;100.00;99815.10;1756916;80;21109;-80
2021/12/19 09:57:25;;;;;;;9.48;6.75;;;;;;;0.72;100.00;99794.22;1709094;81;21144;-81
2021/12/19 09:59:52;;;;;;;12.20;7.33;;;;;;;0.73;100.00;99789.94;1704229;83;20959;-79
2021/12/19 10:02:19;;;;;;;14.33;7.75;;;;;;;0.74;100.00;99786.48;1727028;80;21049;-81
2021/12/19 10:04:47;;;;;;;12.37;7.60;;;;;;;0.86;100.00;99778.19;1749678;80;21092;-79
2021/12/19 10:07:28;;;;;;;12.90;7.28;;;;;;;0.94;100.00;99767.11;1750712;80;21017;-80
2021/12/19 10:10:04;;;;;;;12.50;7.72;;;;;;;0.92;100.00;99760.41;1740588;81;21122;-80
2021/12/19 10:12:48;;;;;;;15.53;7.92;;;;;;;0.85;100.00;99757.30;1753055;81;21476;-80
2021/12/19 10:15:24;;;;;;;14.43;8.28;;;;;;;0.82;100.00;99747.65;1740968;81;21049;-80
2021/12/19 10:18:14;;;;;;;12.47;8.15;;;;;;;0.78;100.00;99743.97;1758205;80;21125;-82
2021/12/19 10:20:57;;;;;;;18.82;8.45;;;;;;;0.76;100.00;99736.80;1762651;79;26495;-79
2021/12/19 10:23:35;;;;;;;16.10;8.03;;;;;;;0.74;100.00;99716.00;1741091;80;21660;-80
2021/12/19 10:26:11;;;;;;;11.45;7.33;;;;;;;0.73;100.00;99704.09;1748953;80;21588;-80
2021/12/19 10:28:57;;;;;;;12.25;8.98;;;;;;;0.70;100.00;99704.22;1750270;79;21100;-82
2021/12/19 10:31:28;;;;;;;16.10;8.60;;;;;;;0.70;100.00;99705.50;1767531;80;21069;-80
2021/12/19 10:33:55;;;;;;;;;;;;;;;0.69;100.00;99679.06;1765071;81;21090;-81
2021/12/19 10:36:22;;;;;;;13.60;8.48;;;;;;;0.69;100.00;99673.94;1756109;79;21154;-80
2021/12/19 10:38:52;;;;;;;18.12;10.10;;;;;;;0.69;100.00;99678.22;1746615;79;21085;-81
2021/12/19 10:41:31;;;;;;;16.37;10.37;;;;;;;0.71;100.00;99649.51;1717948;80;21834;-82
2021/12/19 10:45:29;;;;;;;12.50;9.95;;;;;;;0.71;100.00;99649.51;1762974;80;21592;-80
2021/12/19 10:46:45;;;;;;;16.60;10.63;;;;;;;0.73;100.00;99652.36;1703997;82;21110;-80
2021/12/19 10:49:32;;;;;;;13.55;9.28;;;;;;;0.74;100.00;99646.80;1721695;82;21150;-80
2021/12/19 10:52:04;;;;;;;16.55;10.85;;;;;;;0.74;100.00;99648.09;1699346;82;21046;-79
2021/12/19 10:54:31;;;;;;;15.05;11.38;;;;;;;0.76;100.00;99646.28;1762587;80;21045;-79
2021/12/19 10:57:11;;;;;;;15.48;10.48;;;;;;;0.76;100.00;99650.13;1739293;81;21103;-80
2021/12/19 10:59:38;;;;;;;14.68;10.45;;;;;;;0.76;100.00;99634.75;1762425;80;21516;-81
2021/12/19 11:02:05;;;;;;;14.15;10.55;;;;;;;0.76;100.00;99625.78;1739246;80;21155;-80
2021/12/19 11:04:35;;;;;;;13.10;11.12;;;;;;;0.73;100.00;99595.17;1762630;81;21016;-80
2021/12/19 11:07:03;;;;;;;14.20;11.15;;;;;;;0.73;100.00;99595.17;1759595;80;21550;-81
2021/12/19 11:09:34;;;;;;;21.40;14.00;;;;;;;0.72;100.00;99593.51;1762732;81;20996;-80
2021/12/19 11:12:08;;;;;;;21.97;14.50;;;;;;;0.72;100.00;99592.23;1762971;80;21521;-81
2021/12/19 11:14:43;;;;;;;18.98;12.50;;;;;;;0.71;100.00;99587.56;1762418;80;22041;-80
2021/12/19 11:17:21;;;;;;;17.20;12.68;;;;;;;0.72;100.00;99590.95;1762967;80;21552;-79
2021/12/19 11:19:52;;;;;;;19.80;13.25;;;;;;;0.73;100.00;99587.02;1737457;81;21072;-83
2021/12/19 11:22:24;;;;;;;18.98;13.83;;;;;;;0.73;100.00;99569.55;1763066;80;21080;-80
2021/12/19 11:24:55;;;;;;;18.85;13.13;;;;;;;0.72;100.00;99596.07;1762904;81;21049;-80
2021/12/19 11:27:22;;;;;;;18.85;14.15;;;;;;;0.71;100.00;99591.41;1763215;80;21109;-80
2021/12/19 11:29:52;;;;;;;21.87;15.08;;;;;;;0.71;100.00;99592.70;1762706;80;21049;-79
2021/12/19 11:32:28;;;;;;;25.30;15.85;;;;;;;0.71;100.00;99584.16;1763253;80;20992;-79
2021/12/19 11:35:06;;;;;;;22.32;14.28;;;;;;;0.69;100.00;99590.66;1757546;80;21561;-81
2021/12/19 11:37:55;;;;;;;21.77;15.85;;;;;;;0.70;100.00;99573.53;1760804;80;21009;-80
2021/12/19 11:40:23;;;;;;;21.82;14.95;;;;;;;0.68;100.00;99580.02;1761141;80;21140;-81
2021/12/19 11:43:02;;;;;;;20.15;14.65;;;;;;;0.67;100.00;99593.73;1763010;80;20985;-80
2021/12/19 11:45:40;;;;;;;19.00;14.33;;;;;;;0.66;100.00;99573.33;1737215;81;21044;-79
2021/12/19 11:48:28;;;;;;;20.15;15.53;;;;;;;0.67;100.00;99572.42;1765350;81;21045;-80
2021/12/19 11:50:59;;;;;;;22.00;15.60;;;;;;;0.68;100.00;99561.27;1766342;79;21590;-81
2021/12/19 11:53:34;;;;;;;20.02;14.50;;;;;;;0.70;100.00;99542.78;1718385;81;21087;-81
2021/12/19 11:56:09;;;;;;;20.40;14.95;;;;;;;0.72;100.00;99538.41;1765011;80;21034;-80
2021/12/19 11:58:49;;;;;;;20.60;15.95;;;;;;;0.73;100.00;99528.54;1766197;80;21077;-80
2021/12/19 12:01:24;;;;;;;22.00;16.10;;;;;;;0.74;100.00;99527.64;1765873;80;21033;-82
2021/12/19 12:04:13;;;;;;;25.02;16.60;;;;;;;0.74;100.00;99523.33;1763459;81;21113;-81
2021/12/19 12:06:45;;;;;;;26.73;17.52;;;;;;;0.75;100.00;99508.80;1764191;80;21171;-84
2021/12/19 12:09:27;;;;;;;24.30;15.45;;;;;;;0.76;100.00;99516.39;1760073;81;21036;-80
2021/12/19 12:12:07;;;;;;;23.85;17.00;;;;;;;0.77;100.00;99509.52;1762971;80;21040;-80
2021/12/19 12:14:55;;;;;;;25.48;17.90;;;;;;;0.79;100.00;99512.84;1759042;80;21036;-81
2021/12/19 12:17:35;;;;;;;22.22;15.48;;;;;;;0.80;100.00;99526.50;1749896;80;21001;-81
2021/12/19 12:20:18;;;;;;;26.25;17.25;;;;;;;0.80;100.00;99509.38;1750930;80;22373;-82
2021/12/19 12:22:56;;;;;;;23.83;16.93;;;;;;;0.80;100.00;99522.66;1765503;80;21077;-80
2021/12/19 12:25:33;;;;;;;25.08;16.32;;;;;;;0.78;100.00;99513.30;1741526;80;21636;-80
2021/12/19 12:28:08;;;;;;;25.45;17.37;;;;;;;0.80;100.00;99513.22;1765449;81;21021;-82
2021/12/19 12:30:40;;;;;;;22.15;15.98;;;;;;;0.80;100.00;99515.78;1765669;81;21041;-81
2021/12/19 12:33:10;;;;;;;21.95;16.20;;;;;;;0.83;100.00;99513.50;1741719;81;21032;-80
2021/12/19 12:35:42;;;;;;;23.32;13.43;;;;;;;0.84;100.00;99503.16;1765391;80;21053;-81
2021/12/19 12:38:10;;;;;;;25.80;17.20;;;;;;;0.82;100.00;99493.47;1765627;80;21025;-81
2021/12/19 12:43:32;;;;;;;25.85;16.73;;;;;;;0.86;100.00;99480.03;1765548;81;20981;-80
2021/12/19 12:46:10;;;;;;;23.35;15.43;;;;;;;0.88;100.00;99473.09;1762723;80;21077;-80
2021/12/19 12:49:00;;;;;;;20.68;15.72;;;;;;;0.89;100.00;99468.31;1765542;80;21084;-80
2021/12/19 12:51:33;;;;;;;23.70;15.60;;;;;;;0.90;100.00;99462.28;1765583;81;21577;-80
2021/12/19 12:54:05;;;;;;;23.67;16.70;;;;;;;0.91;100.00;99460.94;1765530;80;20994;-80